sensor_id;sensor_type;location;lat;lon;timestamp;temperature;humidity
20380;DHT22;10349;48.666;8.948;2022-07-29T00:02:28;18.70;99.90
20380;DHT22;10349;48.666;8.948;2022-07-29T00:04:54;18.60;99.90
20380;DHT22;10349;48.666;8.948;2022-07-29T00:07:20;18.60;99.90
20380;DHT22;10349;48.666;8.948;2022-07-29T00:09:45;18.50;99.90
20380;DHT22;10349;48.666;8.948;2022-07-29T00:12:11;18.50;99.90
20380;DHT22;10349;48.666;8.948;2022-07-29T00:14:37;18.50;99.90
20380;DHT22;10349;48.666;8.948;2022-07-29T00:17:02;18.50;99.90
20380;DHT22;10349;48.666;8.948;2022-07-29T00:19:28;18.50;99.90
20380;DHT22;10349;48.666;8.948;2022-07-29T00:21:54;18.50;99.90
20380;DHT22;10349;48.666;8.948;2022-07-29T00:24:19;18.50;99.90
20380;DHT22;10349;48.666;8.948;2022-07-29T00:26:45;18.40;99.90
20380;DHT22;10349;48.666;8.948;2022-07-29T00:29:10;18.40;99.90
20380;DHT22;10349;48.666;8.948;2022-07-29T00:31:36;18.30;99.90
20380;DHT22;10349;48.666;8.948;2022-07-29T00:34:02;18.30;99.90
20380;DHT22;10349;48.666;8.948;2022-07-29T00:36:28;18.20;99.90
20380;DHT22;10349;48.666;8.948;2022-07-29T00:38:54;18.10;99.90
20380;DHT22;10349;48.666;8.948;2022-07-29T00:41:19;18.10;99.90
20380;DHT22;10349;48.666;8.948;2022-07-29T00:43:46;18.10;99.90
20380;DHT22;10349;48.666;8.948;2022-07-29T00:46:12;18.00;99.90
20380;DHT22;10349;48.666;8.948;2022-07-29T00:48:38;18.00;99.90
20380;DHT22;10349;48.666;8.948;2022-07-29T00:51:05;17.90;99.90
20380;DHT22;10349;48.666;8.948;2022-07-29T00:53:32;17.80;99.90
20380;DHT22;10349;48.666;8.948;2022-07-29T00:55:59;17.80;99.90
20380;DHT22;10349;48.666;8.948;2022-07-29T00:58:26;17.80;99.90
20380;DHT22;10349;48.666;8.948;2022-07-29T01:00:53;17.80;99.90
20380;DHT22;10349;48.666;8.948;2022-07-29T01:03:18;17.80;99.90
20380;DHT22;10349;48.666;8.948;2022-07-29T01:05:45;17.80;99.90
20380;DHT22;10349;48.666;8.948;2022-07-29T01:08:12;17.70;99.90
20380;DHT22;10349;48.666;8.948;2022-07-29T01:10:40;17.70;99.90
20380;DHT22;10349;48.666;8.948;2022-07-29T01:13:06;17.60;99.90
20380;DHT22;10349;48.666;8.948;2022-07-29T01:15:40;17.60;99.90
20380;DHT22;10349;48.666;8.948;2022-07-29T01:18:17;17.60;99.90
20380;DHT22;10349;48.666;8.948;2022-07-29T01:24:05;17.40;99.90
20380;DHT22;10349;48.666;8.948;2022-07-29T01:26:54;17.40;99.90
20380;DHT22;10349;48.666;8.948;2022-07-29T01:32:08;17.40;99.90
20380;DHT22;10349;48.666;8.948;2022-07-29T01:40:22;17.50;99.90
20380;DHT22;10349;48.666;8.948;2022-07-29T01:42:52;17.50;99.90
20380;DHT22;10349;48.666;8.948;2022-07-29T01:45:23;17.50;99.90
20380;DHT22;10349;48.666;8.948;2022-07-29T01:50:28;17.50;99.90
20380;DHT22;10349;48.666;8.948;2022-07-29T01:53:01;17.50;99.90
20380;DHT22;10349;48.666;8.948;2022-07-29T01:55:31;17.60;99.90
20380;DHT22;10349;48.666;8.948;2022-07-29T01:57:58;17.60;99.90
20380;DHT22;10349;48.666;8.948;2022-07-29T02:00:26;17.60;99.90
20380;DHT22;10349;48.666;8.948;2022-07-29T02:02:53;17.60;99.90
20380;DHT22;10349;48.666;8.948;2022-07-29T02:05:21;17.60;99.90
20380;DHT22;10349;48.666;8.948;2022-07-29T02:07:49;17.60;99.90
20380;DHT22;10349;48.666;8.948;2022-07-29T02:10:19;17.60;99.90
20380;DHT22;10349;48.666;8.948;2022-07-29T02:12:47;17.50;99.90
20380;DHT22;10349;48.666;8.948;2022-07-29T02:15:14;17.50;99.90
20380;DHT22;10349;48.666;8.948;2022-07-29T02:17:45;17.50;99.90
20380;DHT22;10349;48.666;8.948;2022-07-29T02:20:13;17.50;99.90
20380;DHT22;10349;48.666;8.948;2022-07-29T02:22:39;17.40;99.90
20380;DHT22;10349;48.666;8.948;2022-07-29T02:25:10;17.40;99.90
20380;DHT22;10349;48.666;8.948;2022-07-29T02:27:37;17.30;99.90
20380;DHT22;10349;48.666;8.948;2022-07-29T02:30:04;17.30;99.90
20380;DHT22;10349;48.666;8.948;2022-07-29T02:32:34;17.30;99.90
20380;DHT22;10349;48.666;8.948;2022-07-29T02:35:01;17.20;99.90
20380;DHT22;10349;48.666;8.948;2022-07-29T02:37:27;17.30;99.90
20380;DHT22;10349;48.666;8.948;2022-07-29T02:39:55;17.20;99.90
20380;DHT22;10349;48.666;8.948;2022-07-29T02:42:24;17.10;99.90
20380;DHT22;10349;48.666;8.948;2022-07-29T02:44:52;17.10;99.90
20380;DHT22;10349;48.666;8.948;2022-07-29T02:49:57;17.00;99.90
20380;DHT22;10349;48.666;8.948;2022-07-29T02:52:37;17.00;99.90
20380;DHT22;10349;48.666;8.948;2022-07-29T02:55:17;16.90;99.90
20380;DHT22;10349;48.666;8.948;2022-07-29T02:57:51;17.00;99.90
20380;DHT22;10349;48.666;8.948;2022-07-29T03:00:21;17.00;99.90
20380;DHT22;10349;48.666;8.948;2022-07-29T03:02:52;17.00;99.90
20380;DHT22;10349;48.666;8.948;2022-07-29T03:05:20;17.00;99.90
20380;DHT22;10349;48.666;8.948;2022-07-29T03:07:49;17.10;99.90
20380;DHT22;10349;48.666;8.948;2022-07-29T03:10:16;17.10;99.90
20380;DHT22;10349;48.666;8.948;2022-07-29T03:12:43;17.10;99.90
20380;DHT22;10349;48.666;8.948;2022-07-29T03:15:10;17.10;99.90
20380;DHT22;10349;48.666;8.948;2022-07-29T03:17:36;17.10;99.90
20380;DHT22;10349;48.666;8.948;2022-07-29T03:20:03;17.10;99.90
20380;DHT22;10349;48.666;8.948;2022-07-29T03:22:29;17.00;99.90
20380;DHT22;10349;48.666;8.948;2022-07-29T03:24:55;17.00;99.90
20380;DHT22;10349;48.666;8.948;2022-07-29T03:27:21;17.00;99.90
20380;DHT22;10349;48.666;8.948;2022-07-29T03:29:47;17.00;99.90
20380;DHT22;10349;48.666;8.948;2022-07-29T03:32:12;17.00;99.90
20380;DHT22;10349;48.666;8.948;2022-07-29T03:34:38;17.00;99.90
20380;DHT22;10349;48.666;8.948;2022-07-29T03:37:05;17.00;99.90
20380;DHT22;10349;48.666;8.948;2022-07-29T03:39:35;17.10;99.90
20380;DHT22;10349;48.666;8.948;2022-07-29T03:42:02;17.10;99.90
20380;DHT22;10349;48.666;8.948;2022-07-29T03:44:28;17.10;99.90
20380;DHT22;10349;48.666;8.948;2022-07-29T03:46:57;17.10;99.90
20380;DHT22;10349;48.666;8.948;2022-07-29T03:49:26;17.10;99.90
20380;DHT22;10349;48.666;8.948;2022-07-29T03:51:52;17.10;99.90
20380;DHT22;10349;48.666;8.948;2022-07-29T03:54:18;17.10;99.90
20380;DHT22;10349;48.666;8.948;2022-07-29T03:56:45;17.00;99.90
20380;DHT22;10349;48.666;8.948;2022-07-29T03:59:14;17.00;99.90
20380;DHT22;10349;48.666;8.948;2022-07-29T04:01:41;17.00;99.90
20380;DHT22;10349;48.666;8.948;2022-07-29T04:04:07;17.00;99.90
20380;DHT22;10349;48.666;8.948;2022-07-29T04:06:43;17.00;99.90
20380;DHT22;10349;48.666;8.948;2022-07-29T04:09:10;17.00;99.90
20380;DHT22;10349;48.666;8.948;2022-07-29T04:11:39;16.90;99.90
20380;DHT22;10349;48.666;8.948;2022-07-29T04:14:05;16.90;99.90
20380;DHT22;10349;48.666;8.948;2022-07-29T04:16:31;16.90;99.90
20380;DHT22;10349;48.666;8.948;2022-07-29T04:18:57;16.90;99.90
20380;DHT22;10349;48.666;8.948;2022-07-29T04:21:22;16.90;99.90
20380;DHT22;10349;48.666;8.948;2022-07-29T04:23:48;16.80;99.90
20380;DHT22;10349;48.666;8.948;2022-07-29T04:26:18;16.80;99.90
20380;DHT22;10349;48.666;8.948;2022-07-29T04:28:45;16.70;99.90
20380;DHT22;10349;48.666;8.948;2022-07-29T04:31:12;16.60;99.90
20380;DHT22;10349;48.666;8.948;2022-07-29T04:33:37;16.60;99.90
20380;DHT22;10349;48.666;8.948;2022-07-29T04:36:03;16.60;99.90
20380;DHT22;10349;48.666;8.948;2022-07-29T04:38:29;16.60;99.90
20380;DHT22;10349;48.666;8.948;2022-07-29T04:40:55;16.60;99.90
20380;DHT22;10349;48.666;8.948;2022-07-29T04:43:20;16.60;99.90
20380;DHT22;10349;48.666;8.948;2022-07-29T04:45:46;16.70;99.90
20380;DHT22;10349;48.666;8.948;2022-07-29T04:48:11;16.80;99.90
20380;DHT22;10349;48.666;8.948;2022-07-29T04:50:40;17.10;99.90
20380;DHT22;10349;48.666;8.948;2022-07-29T04:53:07;17.50;99.90
20380;DHT22;10349;48.666;8.948;2022-07-29T04:55:33;18.00;99.90
20380;DHT22;10349;48.666;8.948;2022-07-29T04:57:59;18.50;99.90
20380;DHT22;10349;48.666;8.948;2022-07-29T05:00:24;19.00;99.90
20380;DHT22;10349;48.666;8.948;2022-07-29T05:02:50;19.50;99.90
20380;DHT22;10349;48.666;8.948;2022-07-29T05:05:16;20.00;99.90
20380;DHT22;10349;48.666;8.948;2022-07-29T05:07:41;20.40;99.90
20380;DHT22;10349;48.666;8.948;2022-07-29T05:10:08;20.60;99.90
20380;DHT22;10349;48.666;8.948;2022-07-29T05:12:33;20.60;99.90
20380;DHT22;10349;48.666;8.948;2022-07-29T05:14:59;20.50;99.90
20380;DHT22;10349;48.666;8.948;2022-07-29T05:17:25;20.30;99.90
20380;DHT22;10349;48.666;8.948;2022-07-29T05:19:51;20.20;99.90
20380;DHT22;10349;48.666;8.948;2022-07-29T05:22:19;19.90;99.90
20380;DHT22;10349;48.666;8.948;2022-07-29T05:24:45;19.80;99.90
20380;DHT22;10349;48.666;8.948;2022-07-29T05:27:11;19.90;99.90
20380;DHT22;10349;48.666;8.948;2022-07-29T05:29:36;20.00;99.90
20380;DHT22;10349;48.666;8.948;2022-07-29T05:32:02;20.20;99.90
20380;DHT22;10349;48.666;8.948;2022-07-29T05:34:28;20.30;99.90
20380;DHT22;10349;48.666;8.948;2022-07-29T05:36:54;20.50;99.90
20380;DHT22;10349;48.666;8.948;2022-07-29T05:39:20;20.60;99.90
20380;DHT22;10349;48.666;8.948;2022-07-29T05:41:45;20.50;99.90
20380;DHT22;10349;48.666;8.948;2022-07-29T05:44:11;20.40;99.90
20380;DHT22;10349;48.666;8.948;2022-07-29T05:46:38;20.30;99.90
20380;DHT22;10349;48.666;8.948;2022-07-29T05:49:04;20.30;99.90
20380;DHT22;10349;48.666;8.948;2022-07-29T05:51:32;20.30;99.90
20380;DHT22;10349;48.666;8.948;2022-07-29T05:53:58;20.50;99.90
20380;DHT22;10349;48.666;8.948;2022-07-29T05:56:24;20.50;99.90
20380;DHT22;10349;48.666;8.948;2022-07-29T05:58:50;20.60;99.90
20380;DHT22;10349;48.666;8.948;2022-07-29T06:01:16;20.60;99.90
20380;DHT22;10349;48.666;8.948;2022-07-29T06:03:42;20.60;99.90
20380;DHT22;10349;48.666;8.948;2022-07-29T06:06:08;20.60;99.90
20380;DHT22;10349;48.666;8.948;2022-07-29T06:08:34;20.50;99.90
20380;DHT22;10349;48.666;8.948;2022-07-29T06:11:00;20.20;99.90
20380;DHT22;10349;48.666;8.948;2022-07-29T06:13:26;20.20;99.90
20380;DHT22;10349;48.666;8.948;2022-07-29T06:15:52;20.20;99.90
20380;DHT22;10349;48.666;8.948;2022-07-29T06:18:17;20.20;99.90
20380;DHT22;10349;48.666;8.948;2022-07-29T06:20:43;20.20;99.90
20380;DHT22;10349;48.666;8.948;2022-07-29T06:23:09;20.30;99.90
20380;DHT22;10349;48.666;8.948;2022-07-29T06:25:35;20.40;99.90
20380;DHT22;10349;48.666;8.948;2022-07-29T06:28:02;20.40;99.90
20380;DHT22;10349;48.666;8.948;2022-07-29T06:30:28;20.40;99.90
20380;DHT22;10349;48.666;8.948;2022-07-29T06:32:54;20.50;99.90
20380;DHT22;10349;48.666;8.948;2022-07-29T06:35:20;20.70;99.90
20380;DHT22;10349;48.666;8.948;2022-07-29T06:37:46;20.80;99.90
20380;DHT22;10349;48.666;8.948;2022-07-29T06:40:11;20.90;99.90
20380;DHT22;10349;48.666;8.948;2022-07-29T06:42:56;20.80;99.90
20380;DHT22;10349;48.666;8.948;2022-07-29T06:45:21;20.70;99.90
20380;DHT22;10349;48.666;8.948;2022-07-29T06:47:47;20.70;99.90
20380;DHT22;10349;48.666;8.948;2022-07-29T06:50:14;20.70;99.90
20380;DHT22;10349;48.666;8.948;2022-07-29T06:52:40;20.90;99.90
20380;DHT22;10349;48.666;8.948;2022-07-29T06:55:07;20.90;99.90
20380;DHT22;10349;48.666;8.948;2022-07-29T06:57:33;20.90;99.90
20380;DHT22;10349;48.666;8.948;2022-07-29T06:59:59;20.90;99.90
20380;DHT22;10349;48.666;8.948;2022-07-29T07:02:24;21.00;99.90
20380;DHT22;10349;48.666;8.948;2022-07-29T07:04:51;21.10;99.90
20380;DHT22;10349;48.666;8.948;2022-07-29T07:07:16;21.20;99.90
20380;DHT22;10349;48.666;8.948;2022-07-29T07:09:42;21.30;99.90
20380;DHT22;10349;48.666;8.948;2022-07-29T07:12:08;21.20;99.90
20380;DHT22;10349;48.666;8.948;2022-07-29T07:14:33;21.20;99.90
20380;DHT22;10349;48.666;8.948;2022-07-29T07:16:59;21.30;99.90
20380;DHT22;10349;48.666;8.948;2022-07-29T07:19:26;21.30;99.90
20380;DHT22;10349;48.666;8.948;2022-07-29T07:21:53;21.20;99.90
20380;DHT22;10349;48.666;8.948;2022-07-29T07:24:18;21.30;99.90
20380;DHT22;10349;48.666;8.948;2022-07-29T07:26:44;21.30;99.90
20380;DHT22;10349;48.666;8.948;2022-07-29T07:29:10;21.40;99.90
20380;DHT22;10349;48.666;8.948;2022-07-29T07:31:37;21.40;99.90
20380;DHT22;10349;48.666;8.948;2022-07-29T07:34:02;21.50;99.90
20380;DHT22;10349;48.666;8.948;2022-07-29T07:36:28;21.60;99.90
20380;DHT22;10349;48.666;8.948;2022-07-29T07:38:53;21.70;99.90
20380;DHT22;10349;48.666;8.948;2022-07-29T07:41:20;21.80;99.90
20380;DHT22;10349;48.666;8.948;2022-07-29T07:43:45;21.80;99.90
20380;DHT22;10349;48.666;8.948;2022-07-29T07:46:11;21.90;99.90
20380;DHT22;10349;48.666;8.948;2022-07-29T07:48:37;22.00;99.90
20380;DHT22;10349;48.666;8.948;2022-07-29T07:51:02;22.00;99.90
20380;DHT22;10349;48.666;8.948;2022-07-29T07:53:28;22.20;99.90
20380;DHT22;10349;48.666;8.948;2022-07-29T07:55:55;22.30;99.90
20380;DHT22;10349;48.666;8.948;2022-07-29T07:58:20;22.40;99.90
20380;DHT22;10349;48.666;8.948;2022-07-29T08:00:46;22.50;99.90
20380;DHT22;10349;48.666;8.948;2022-07-29T08:03:12;22.60;99.90
20380;DHT22;10349;48.666;8.948;2022-07-29T08:05:39;22.70;99.90
20380;DHT22;10349;48.666;8.948;2022-07-29T08:08:06;22.70;99.90
20380;DHT22;10349;48.666;8.948;2022-07-29T08:10:32;22.80;99.90
20380;DHT22;10349;48.666;8.948;2022-07-29T08:13:16;22.90;99.90
20380;DHT22;10349;48.666;8.948;2022-07-29T08:15:42;23.00;99.90
20380;DHT22;10349;48.666;8.948;2022-07-29T08:18:10;23.00;99.90
20380;DHT22;10349;48.666;8.948;2022-07-29T08:20:36;23.10;99.90
20380;DHT22;10349;48.666;8.948;2022-07-29T08:23:06;23.10;99.90
20380;DHT22;10349;48.666;8.948;2022-07-29T08:25:35;23.20;99.90
20380;DHT22;10349;48.666;8.948;2022-07-29T08:28:01;23.40;99.90
20380;DHT22;10349;48.666;8.948;2022-07-29T08:30:26;23.50;99.90
20380;DHT22;10349;48.666;8.948;2022-07-29T08:32:52;23.60;99.90
20380;DHT22;10349;48.666;8.948;2022-07-29T08:35:22;23.70;99.90
20380;DHT22;10349;48.666;8.948;2022-07-29T08:37:48;23.80;99.90
20380;DHT22;10349;48.666;8.948;2022-07-29T08:40:14;23.80;99.90
20380;DHT22;10349;48.666;8.948;2022-07-29T08:42:40;23.90;99.90
20380;DHT22;10349;48.666;8.948;2022-07-29T08:45:06;24.10;99.90
20380;DHT22;10349;48.666;8.948;2022-07-29T08:47:33;24.20;99.90
20380;DHT22;10349;48.666;8.948;2022-07-29T08:49:59;24.30;99.90
20380;DHT22;10349;48.666;8.948;2022-07-29T08:52:26;24.40;99.90
20380;DHT22;10349;48.666;8.948;2022-07-29T08:54:53;24.50;99.90
20380;DHT22;10349;48.666;8.948;2022-07-29T08:57:19;24.50;99.90
20380;DHT22;10349;48.666;8.948;2022-07-29T08:59:48;24.50;99.90
20380;DHT22;10349;48.666;8.948;2022-07-29T09:02:22;24.60;99.90
20380;DHT22;10349;48.666;8.948;2022-07-29T09:04:48;24.70;99.90
20380;DHT22;10349;48.666;8.948;2022-07-29T09:07:16;24.70;99.90
20380;DHT22;10349;48.666;8.948;2022-07-29T09:09:42;24.60;99.90
20380;DHT22;10349;48.666;8.948;2022-07-29T09:12:09;24.70;99.90
20380;DHT22;10349;48.666;8.948;2022-07-29T09:14:39;24.80;99.90
20380;DHT22;10349;48.666;8.948;2022-07-29T09:17:06;24.90;99.90
20380;DHT22;10349;48.666;8.948;2022-07-29T09:19:33;25.10;99.90
20380;DHT22;10349;48.666;8.948;2022-07-29T09:22:04;25.30;99.90
20380;DHT22;10349;48.666;8.948;2022-07-29T09:27:27;25.50;99.90
20380;DHT22;10349;48.666;8.948;2022-07-29T09:29:56;25.60;99.90
20380;DHT22;10349;48.666;8.948;2022-07-29T09:32:23;25.80;99.90
20380;DHT22;10349;48.666;8.948;2022-07-29T09:34:49;26.00;99.90
20380;DHT22;10349;48.666;8.948;2022-07-29T09:37:26;26.10;99.90
20380;DHT22;10349;48.666;8.948;2022-07-29T09:39:52;26.10;99.90
20380;DHT22;10349;48.666;8.948;2022-07-29T09:42:28;26.10;99.90
20380;DHT22;10349;48.666;8.948;2022-07-29T09:44:54;26.10;99.90
20380;DHT22;10349;48.666;8.948;2022-07-29T09:47:20;26.20;99.90
20380;DHT22;10349;48.666;8.948;2022-07-29T09:49:56;26.40;99.90
20380;DHT22;10349;48.666;8.948;2022-07-29T09:52:29;26.40;99.90
20380;DHT22;10349;48.666;8.948;2022-07-29T09:55:05;26.40;99.90
20380;DHT22;10349;48.666;8.948;2022-07-29T09:57:31;26.70;99.90
20380;DHT22;10349;48.666;8.948;2022-07-29T10:02:22;27.10;99.90
20380;DHT22;10349;48.666;8.948;2022-07-29T10:04:50;27.10;99.90
20380;DHT22;10349;48.666;8.948;2022-07-29T10:07:16;27.10;99.90
20380;DHT22;10349;48.666;8.948;2022-07-29T10:09:59;27.10;99.90
20380;DHT22;10349;48.666;8.948;2022-07-29T10:12:25;27.10;99.90
20380;DHT22;10349;48.666;8.948;2022-07-29T10:14:51;27.10;99.90
20380;DHT22;10349;48.666;8.948;2022-07-29T10:17:18;27.00;99.90
20380;DHT22;10349;48.666;8.948;2022-07-29T10:19:44;27.00;99.90
20380;DHT22;10349;48.666;8.948;2022-07-29T10:22:10;26.80;99.90
20380;DHT22;10349;48.666;8.948;2022-07-29T10:24:37;26.10;99.90
20380;DHT22;10349;48.666;8.948;2022-07-29T10:27:05;25.90;99.90
20380;DHT22;10349;48.666;8.948;2022-07-29T10:29:31;25.60;99.90
20380;DHT22;10349;48.666;8.948;2022-07-29T10:35:15;24.70;99.90
20380;DHT22;10349;48.666;8.948;2022-07-29T10:40:39;23.30;99.90
20380;DHT22;10349;48.666;8.948;2022-07-29T10:43:34;22.90;99.90
20380;DHT22;10349;48.666;8.948;2022-07-29T10:46:03;22.80;99.90
20380;DHT22;10349;48.666;8.948;2022-07-29T10:48:29;22.30;99.90
20380;DHT22;10349;48.666;8.948;2022-07-29T10:51:03;22.10;99.90
20380;DHT22;10349;48.666;8.948;2022-07-29T10:53:49;21.90;99.90
20380;DHT22;10349;48.666;8.948;2022-07-29T10:56:26;21.50;99.90
20380;DHT22;10349;48.666;8.948;2022-07-29T11:01:46;21.10;99.90
20380;DHT22;10349;48.666;8.948;2022-07-29T11:04:12;21.00;99.90
20380;DHT22;10349;48.666;8.948;2022-07-29T11:09:24;21.00;99.90
20380;DHT22;10349;48.666;8.948;2022-07-29T11:11:50;20.80;99.90
20380;DHT22;10349;48.666;8.948;2022-07-29T11:14:16;20.90;99.90
20380;DHT22;10349;48.666;8.948;2022-07-29T11:17:12;20.90;99.90
20380;DHT22;10349;48.666;8.948;2022-07-29T11:19:38;20.90;99.90
20380;DHT22;10349;48.666;8.948;2022-07-29T11:22:08;21.00;99.90
20380;DHT22;10349;48.666;8.948;2022-07-29T11:24:34;21.00;99.90
20380;DHT22;10349;48.666;8.948;2022-07-29T11:27:16;21.00;99.90
20380;DHT22;10349;48.666;8.948;2022-07-29T11:29:51;20.90;99.90
20380;DHT22;10349;48.666;8.948;2022-07-29T11:32:18;20.70;99.90
20380;DHT22;10349;48.666;8.948;2022-07-29T11:34:46;20.70;99.90
20380;DHT22;10349;48.666;8.948;2022-07-29T11:39:42;20.60;99.90
20380;DHT22;10349;48.666;8.948;2022-07-29T11:45:02;20.70;99.90
20380;DHT22;10349;48.666;8.948;2022-07-29T11:47:38;20.50;99.90
20380;DHT22;10349;48.666;8.948;2022-07-29T11:50:09;20.50;99.90
20380;DHT22;10349;48.666;8.948;2022-07-29T11:52:41;20.50;99.90
20380;DHT22;10349;48.666;8.948;2022-07-29T11:55:17;20.50;99.90
20380;DHT22;10349;48.666;8.948;2022-07-29T11:57:47;20.60;99.90
20380;DHT22;10349;48.666;8.948;2022-07-29T12:02:54;20.60;99.90
20380;DHT22;10349;48.666;8.948;2022-07-29T12:05:21;20.70;99.90
20380;DHT22;10349;48.666;8.948;2022-07-29T12:07:55;20.80;99.90
20380;DHT22;10349;48.666;8.948;2022-07-29T12:10:21;21.00;99.90
20380;DHT22;10349;48.666;8.948;2022-07-29T12:12:51;21.00;99.90
20380;DHT22;10349;48.666;8.948;2022-07-29T12:15:18;21.10;99.90
20380;DHT22;10349;48.666;8.948;2022-07-29T12:17:46;21.30;99.90
20380;DHT22;10349;48.666;8.948;2022-07-29T12:20:12;21.50;99.90
20380;DHT22;10349;48.666;8.948;2022-07-29T12:22:41;21.60;99.90
20380;DHT22;10349;48.666;8.948;2022-07-29T12:25:13;21.60;99.90
20380;DHT22;10349;48.666;8.948;2022-07-29T12:27:41;21.60;99.90
20380;DHT22;10349;48.666;8.948;2022-07-29T12:30:11;21.60;99.90
20380;DHT22;10349;48.666;8.948;2022-07-29T12:32:40;21.70;99.90
20380;DHT22;10349;48.666;8.948;2022-07-29T12:37:37;21.90;99.90
20380;DHT22;10349;48.666;8.948;2022-07-29T12:40:05;21.80;99.90
20380;DHT22;10349;48.666;8.948;2022-07-29T12:42:31;21.70;99.90
20380;DHT22;10349;48.666;8.948;2022-07-29T12:44:57;21.50;99.90
20380;DHT22;10349;48.666;8.948;2022-07-29T12:47:23;21.30;99.90
20380;DHT22;10349;48.666;8.948;2022-07-29T12:49:50;21.00;99.90
20380;DHT22;10349;48.666;8.948;2022-07-29T12:52:29;21.00;99.90
20380;DHT22;10349;48.666;8.948;2022-07-29T12:54:55;20.70;99.90
20380;DHT22;10349;48.666;8.948;2022-07-29T12:57:21;20.50;99.90
20380;DHT22;10349;48.666;8.948;2022-07-29T13:00:08;20.40;99.90
20380;DHT22;10349;48.666;8.948;2022-07-29T13:02:37;20.30;99.90
20380;DHT22;10349;48.666;8.948;2022-07-29T13:05:03;20.10;99.90
20380;DHT22;10349;48.666;8.948;2022-07-29T13:07:31;20.00;99.90
20380;DHT22;10349;48.666;8.948;2022-07-29T13:10:20;20.00;99.90
20380;DHT22;10349;48.666;8.948;2022-07-29T13:15:39;19.90;99.90
20380;DHT22;10349;48.666;8.948;2022-07-29T13:18:31;19.90;99.90
20380;DHT22;10349;48.666;8.948;2022-07-29T13:21:11;19.90;99.90
20380;DHT22;10349;48.666;8.948;2022-07-29T13:23:37;19.80;99.90
20380;DHT22;10349;48.666;8.948;2022-07-29T13:26:07;19.80;99.90
20380;DHT22;10349;48.666;8.948;2022-07-29T13:28:33;19.80;99.90
20380;DHT22;10349;48.666;8.948;2022-07-29T13:31:00;19.80;99.90
20380;DHT22;10349;48.666;8.948;2022-07-29T13:33:25;19.90;99.90
20380;DHT22;10349;48.666;8.948;2022-07-29T13:35:51;20.00;99.90
20380;DHT22;10349;48.666;8.948;2022-07-29T13:38:17;20.20;99.90
20380;DHT22;10349;48.666;8.948;2022-07-29T13:40:43;20.30;99.90
20380;DHT22;10349;48.666;8.948;2022-07-29T13:43:10;20.40;99.90
20380;DHT22;10349;48.666;8.948;2022-07-29T13:45:36;20.50;99.90
20380;DHT22;10349;48.666;8.948;2022-07-29T13:48:01;20.70;99.90
20380;DHT22;10349;48.666;8.948;2022-07-29T13:50:27;20.80;99.90
20380;DHT22;10349;48.666;8.948;2022-07-29T13:52:53;21.00;99.90
20380;DHT22;10349;48.666;8.948;2022-07-29T13:55:19;21.30;99.90
20380;DHT22;10349;48.666;8.948;2022-07-29T13:57:45;21.50;99.90
20380;DHT22;10349;48.666;8.948;2022-07-29T14:00:11;21.60;99.90
20380;DHT22;10349;48.666;8.948;2022-07-29T14:02:37;21.80;99.90
20380;DHT22;10349;48.666;8.948;2022-07-29T14:05:07;21.90;99.90
20380;DHT22;10349;48.666;8.948;2022-07-29T14:07:33;21.90;99.90
20380;DHT22;10349;48.666;8.948;2022-07-29T14:09:58;21.90;99.90
20380;DHT22;10349;48.666;8.948;2022-07-29T14:12:24;22.00;99.90
20380;DHT22;10349;48.666;8.948;2022-07-29T14:14:50;22.00;99.90
20380;DHT22;10349;48.666;8.948;2022-07-29T14:17:15;22.10;99.90
20380;DHT22;10349;48.666;8.948;2022-07-29T14:19:41;22.10;99.90
20380;DHT22;10349;48.666;8.948;2022-07-29T14:22:08;22.10;99.90
20380;DHT22;10349;48.666;8.948;2022-07-29T14:24:34;22.10;99.90
20380;DHT22;10349;48.666;8.948;2022-07-29T14:27:00;22.20;99.90
20380;DHT22;10349;48.666;8.948;2022-07-29T14:29:25;22.30;99.90
20380;DHT22;10349;48.666;8.948;2022-07-29T14:31:51;22.40;99.90
20380;DHT22;10349;48.666;8.948;2022-07-29T14:34:17;22.60;99.90
20380;DHT22;10349;48.666;8.948;2022-07-29T14:36:43;22.80;99.90
20380;DHT22;10349;48.666;8.948;2022-07-29T14:39:08;22.90;99.90
20380;DHT22;10349;48.666;8.948;2022-07-29T14:41:34;23.00;99.90
20380;DHT22;10349;48.666;8.948;2022-07-29T14:44:00;23.00;99.90
20380;DHT22;10349;48.666;8.948;2022-07-29T14:46:28;23.10;99.90
20380;DHT22;10349;48.666;8.948;2022-07-29T14:48:54;23.30;99.90
20380;DHT22;10349;48.666;8.948;2022-07-29T14:51:20;23.40;99.90
20380;DHT22;10349;48.666;8.948;2022-07-29T14:53:45;23.50;99.90
20380;DHT22;10349;48.666;8.948;2022-07-29T14:56:12;23.60;99.90
20380;DHT22;10349;48.666;8.948;2022-07-29T14:58:37;23.80;99.90
20380;DHT22;10349;48.666;8.948;2022-07-29T15:01:03;23.90;99.90
20380;DHT22;10349;48.666;8.948;2022-07-29T15:03:29;23.90;99.90
20380;DHT22;10349;48.666;8.948;2022-07-29T15:05:55;24.00;99.90
20380;DHT22;10349;48.666;8.948;2022-07-29T15:08:21;24.10;99.90
20380;DHT22;10349;48.666;8.948;2022-07-29T15:10:47;24.00;99.90
20380;DHT22;10349;48.666;8.948;2022-07-29T15:13:12;24.00;99.90
20380;DHT22;10349;48.666;8.948;2022-07-29T15:15:38;24.00;99.90
20380;DHT22;10349;48.666;8.948;2022-07-29T15:18:04;24.00;99.90
20380;DHT22;10349;48.666;8.948;2022-07-29T15:20:30;23.80;99.90
20380;DHT22;10349;48.666;8.948;2022-07-29T15:22:56;23.90;99.90
20380;DHT22;10349;48.666;8.948;2022-07-29T15:25:25;23.90;99.90
20380;DHT22;10349;48.666;8.948;2022-07-29T15:27:51;24.00;99.90
20380;DHT22;10349;48.666;8.948;2022-07-29T15:30:17;24.00;99.90
20380;DHT22;10349;48.666;8.948;2022-07-29T15:32:43;24.00;99.90
20380;DHT22;10349;48.666;8.948;2022-07-29T15:35:09;23.90;99.90
20380;DHT22;10349;48.666;8.948;2022-07-29T15:37:38;23.80;99.90
20380;DHT22;10349;48.666;8.948;2022-07-29T15:40:04;23.80;99.90
20380;DHT22;10349;48.666;8.948;2022-07-29T15:42:30;23.80;99.90
20380;DHT22;10349;48.666;8.948;2022-07-29T15:44:56;23.80;99.90
20380;DHT22;10349;48.666;8.948;2022-07-29T15:47:22;23.80;99.90
20380;DHT22;10349;48.666;8.948;2022-07-29T15:49:47;23.80;99.90
20380;DHT22;10349;48.666;8.948;2022-07-29T15:52:17;23.60;99.90
20380;DHT22;10349;48.666;8.948;2022-07-29T15:54:46;23.50;99.90
20380;DHT22;10349;48.666;8.948;2022-07-29T15:57:12;23.60;99.90
20380;DHT22;10349;48.666;8.948;2022-07-29T15:59:37;23.50;99.90
20380;DHT22;10349;48.666;8.948;2022-07-29T16:02:03;23.50;99.90
20380;DHT22;10349;48.666;8.948;2022-07-29T16:04:29;23.50;99.90
20380;DHT22;10349;48.666;8.948;2022-07-29T16:06:55;23.60;99.90
20380;DHT22;10349;48.666;8.948;2022-07-29T16:09:22;23.70;99.90
20380;DHT22;10349;48.666;8.948;2022-07-29T16:11:48;23.70;99.90
20380;DHT22;10349;48.666;8.948;2022-07-29T16:14:18;23.80;99.90
20380;DHT22;10349;48.666;8.948;2022-07-29T16:16:44;23.80;99.90
20380;DHT22;10349;48.666;8.948;2022-07-29T16:19:10;23.80;99.90
20380;DHT22;10349;48.666;8.948;2022-07-29T16:21:36;23.80;99.90